NCAR-RAP Real-Time Weather Data

Output produced by METARs form (23 January 2018  15:52 UTC)
found at http://weather.rap.ucar.edu/surface/
 
RJDC 231200Z 33004KT 250V060 9999 -SHSN FEW015 SCT025 BKN035 01/M02 Q1018
RJDC 231100Z 27015KT 6000 -SHSN FEW015 BKN025 BKN030 02/M02 Q1018
RJDC 231000Z 25019KT 9999 FEW010 SCT015 BKN030 03/00 Q1018
RJDC 230900Z 26015KT 9999 -SHSN FEW010 SCT020 BKN040 03/00 Q1018
RJDC 230800Z 30008KT 260V350 9999 VCSH FEW015 SCT035 03/M03 Q1017
RJDC 230700Z 30009G20KT 250V340 9999 FEW015 SCT025 BKN040 04/M00 Q1017
RJDC 230600Z 34010G21KT 270V020 9999 VCSH FEW015 BKN030 BKN040 04/M00 Q1017
RJDC 230500Z 27019KT 9999 VCSH FEW020 BKN035 BKN100 06/M00 Q1016
RJDC 230400Z 28015G27KT 260V330 9999 VCSH FEW020 SCT040 BKN080 07/M02 Q1017
RJDC 230300Z 28017G27KT 9999 FEW020 SCT040 BKN080 08/M02 Q1017
RJDC 230200Z 29016G27KT 260V320 9999 VCSH FEW020 SCT030 BKN040 07/M01 Q1017
RJDC 230100Z 27021KT 9999 FEW030 BKN040 08/00 Q1017
RJDC 230000Z 26017G28KT 9999 VCSH FEW030 BKN040 08/02 Q1016
RJDC 222300Z 27016KT 9999 FEW030 BKN040 08/02 Q1015
RJDC 222200Z 27015KT 9999 FEW035 08/02 Q1014
RJDC 222130Z 27017KT 9999 FEW030 SCT040 08/02 Q1014
RJDC 221200Z 21010KT 9999 FEW020 SCT050 06/04 Q1014
RJDC 221100Z 21009KT 9999 FEW010 SCT015 BKN060 06/04 Q1014
RJDC 221000Z 22006KT 9999 FEW010 SCT030 BKN060 05/04 Q1014
RJDC 220900Z 24005KT 9999 FEW010 SCT025 BKN035 05/04 Q1014
RJDC 220800Z 23005KT 180V260 9999 FEW010 SCT015 BKN025 05/03 Q1013
RJDC 220700Z 24004KT 9999 FEW005 SCT008 BKN010 05/03 Q1013
RJDC 220600Z 25003KT 200V280 9999 FEW005 SCT008 BKN010 05/03 Q1012
RJDC 220533Z 24004KT 9999 FEW005 SCT008 BKN010 04/03 Q1013 RMK 1ST005 4ST008 7ST010 A2992
RJDC 220500Z 24003KT 9999 FEW004 SCT005 BKN007 03/02 Q1012
RJDC 220400Z VRB01KT 9999 -SHRA FEW004 SCT005 BKN007 03/02 Q1013
RJDC 220335Z 08003KT 8000 -SHRA FEW004 BKN005 BKN006 03/02 Q1013 RMK 1ST004 5ST005 7ST006 A2993
RJDC 220300Z 05006KT 7000 -SHRASN FEW004 SCT006 BKN008 02/02 Q1014
RJDC 220230Z 06008KT 5000 -SHRA BR FEW005 SCT006 BKN008 03/02 Q1014 RMK 1ST005 4ST006 6ST008 A2996
RJDC 220200Z 08007KT 5000 -SHRA BR FEW006 SCT008 BKN010 03/02 Q1015
RJDC 220100Z 04007KT 350V050 5000 -SHRA BR FEW008 SCT010 BKN020 04/02 Q1016
RJDC 220000Z 02004KT 340V040 5000 -SHRA BR FEW010 BKN020 BKN025 05/03 Q1016
RJDC 212300Z VRB02KT 7000 -RA FEW015 BKN025 BKN035 05/02 Q1015
RJDC 212200Z VRB01KT 9999 -RA FEW025 BKN035 BKN045 05/00 Q1015
RJDC 212130Z 30003KT 230V360 9999 -RA FEW030 BKN040 BKN050 06/M02 Q1015
RJDC 211200Z 03008KT 9999 FEW030 BKN180 07/M01 Q1019
RJDC 211100Z 03006KT 9999 FEW030 BKN/// 08/M02 Q1020
RJDC 211000Z 02007KT 9999 FEW035 BKN170 BKN/// 08/M02 Q1020
RJDC 210900Z 01005KT 270V050 9999 FEW040 BKN170 BKN/// 09/M02 Q1020
RJDC 210800Z 01007KT 320V030 9999 FEW040 BKN/// 10/M02 Q1019
RJDC 210700Z 01007KT 330V040 9999 FEW040 BKN/// 11/M04 Q1019
RJDC 210600Z 02008KT 330V040 9999 FEW040 BKN/// 12/M00 Q1019
RJDC 210500Z 02010KT 9999 FEW030 SCT040 BKN/// 12/00 Q1019
RJDC 210400Z VRB04KT 9999 FEW030 SCT040 12/01 Q1020